Port Burwell, Canada
Current Conditions -  °F | °C
As of 3:35 PM on Thursday 29 Jan 2015 (Local Time) from CYXU Reporting Station
Light Snow Light Snow  
Wind Chill: 23°   Ceiling: 600
Heat Index: 30°   Visibility: 4mi
Dew Point: 30°   Wind: 7mph
Humidity: 100%   Direction: 240°WSW
Pressure: 29.68"   Gusts: NA
Location:  42.65°N, 80.82°W
Report Text: CYXU 292035Z 24006KT 4SM -FZDZ -SG BR BKN006 OVC015 M01/M01 A2968 RMK CF5ST3 CIG RAG SLP063
Loading
Personal Weather Stations






























Interactive Weather Map New forecast layout! Learn more

10-Day Weather Forecast

Advertisements
Track Severe Weather on mobile